CDT,Max TemperatureF,Mean TemperatureF,Min TemperatureF,Max Dew PointF,MeanDew PointF,Min DewpointF,Max Humidity, Mean Humidity, Min Humidity, Max Sea Level PressureIn, Mean Sea Level PressureIn, Min Sea Level PressureIn, Max VisibilityMiles, Mean VisibilityMiles, Min VisibilityMiles, Max Wind SpeedMPH, Mean Wind SpeedMPH, Max Gust SpeedMPH,PrecipitationIn, CloudCover, Events, WindDirDegrees
2011-10-1,67,55,42,40,37,35,82,57,32,30.38,30.30,30.24,10,10,10,12,5,15,0.00,0,,107
2011-10-2,76,58,40,39,36,34,76,49,21,30.31,30.24,30.17,10,10,10,13,6,15,0.00,0,,179
2011-10-3,80,63,45,42,37,33,71,45,18,30.25,30.20,30.16,10,10,10,12,4,15,0.00,0,,150
2011-10-4,86,69,51,47,42,37,59,41,23,30.22,30.16,30.09,10,10,10,21,11,25,0.00,0,,164
2011-10-5,85,70,54,48,43,38,66,43,20,30.16,30.10,30.04,10,10,10,20,9,24,0.00,0,,162
2011-10-6,82,68,54,50,45,41,66,46,25,30.11,30.05,29.99,10,10,10,24,13,30,0.00,3,,151
2011-10-7,84,74,64,58,54,50,63,52,40,30.07,30.03,29.98,10,10,10,30,17,39,0.00,2,,171
2011-10-8,84,74,64,59,54,50,63,51,39,30.14,30.10,30.06,10,10,10,23,14,29,0.00,2,,168
2011-10-9,82,71,59,56,51,49,72,53,33,30.22,30.15,30.09,10,10,10,21,10,26,0.00,1,,148
2011-10-10,75,66,57,60,52,46,87,66,44,30.09,30.02,29.96,10,10,3,18,7,22,0.07,6,Rain,167
2011-10-11,78,66,54,60,54,49,100,69,37,29.97,29.91,29.80,10,6,0,16,7,24,0.00,4,Fog,169
2011-10-12,67,62,57,61,56,50,93,79,65,29.78,29.70,29.64,10,9,1,17,6,21,1.11,7,Rain-Thunderstorm,225
2011-10-13,70,60,50,52,44,35,89,61,33,29.75,29.71,29.68,10,10,10,30,14,38,0.00,1,,313
2011-10-14,64,56,47,41,36,30,66,49,31,29.96,29.85,29.74,10,10,10,30,16,40,0.00,1,,307
2011-10-15,69,55,41,40,35,29,76,49,22,30.05,29.94,29.78,10,10,10,18,9,23,0.00,1,,258
2011-10-16,63,53,43,42,35,27,68,49,29,30.03,29.93,29.75,10,10,10,23,9,28,T,5,,328
2011-10-17,52,45,38,42,36,28,86,70,53,30.06,30.00,29.95,10,10,10,14,7,17,0.04,6,Rain,273
2011-10-18,51,43,35,34,32,30,82,64,46,30.05,29.99,29.92,10,10,10,21,11,28,0.00,6,,341
2011-10-19,48,42,35,36,32,28,79,66,53,30.04,30.01,29.98,10,10,10,21,12,28,0.00,7,,346
2011-10-20,57,45,32,32,29,26,85,59,32,30.06,29.99,29.94,10,10,10,25,11,31,0.00,1,,323
2011-10-21,65,48,30,35,32,26,85,58,31,30.16,30.09,30.04,10,10,10,14,5,18,0.00,2,,228
2011-10-22,67,54,40,40,37,34,85,57,29,30.15,30.08,30.01,10,10,9,9,4,12,0.00,6,,308
2011-10-23,74,59,44,47,43,39,86,61,35,30.01,29.94,29.84,10,10,10,20,8,25,0.00,3,,238
2011-10-24,74,58,42,44,39,37,83,55,27,30.12,30.03,29.87,10,10,10,16,7,21,0.00,3,,190
2011-10-25,77,63,48,53,48,40,68,55,41,29.92,29.76,29.66,10,10,10,26,15,33,0.00,3,,243
2011-10-26,53,49,44,40,37,35,76,63,50,30.08,30.03,29.91,10,10,10,22,10,29,0.00,7,,360
2011-10-27,58,48,37,37,28,19,82,53,24,30.17,30.12,30.07,10,10,10,17,6,21,0.00,3,,310
2011-10-28,58,45,32,30,24,18,69,46,22,30.17,30.14,30.10,10,10,10,25,8,31,0.00,1,,262
2011-10-29,60,46,31,26,23,20,66,45,23,30.16,30.05,29.89,10,10,9,15,7,20,0.00,4,,187
2011-10-30,58,48,38,38,31,25,66,48,30,30.04,29.93,29.84,10,10,10,29,13,36,T,4,Rain,279
2011-10-31,59,45,31,31,27,25,82,55,28,30.13,30.06,30.00,10,10,10,13,6,14,0.00,0,,207